sensor_id;sensor_type;location;lat;lon;timestamp;pressure;altitude;pressure_sealevel;temperature;humidity
62928;BME280;51070;52.236;-0.892;2023-05-29T00:02:12;101958.23;;;11.74;63.03
62928;BME280;51070;52.236;-0.892;2023-05-29T00:04:38;101957.36;;;11.71;63.17
62928;BME280;51070;52.236;-0.892;2023-05-29T00:07:05;101960.23;;;11.69;63.38
62928;BME280;51070;52.236;-0.892;2023-05-29T00:09:30;101962.77;;;11.64;63.26
62928;BME280;51070;52.236;-0.892;2023-05-29T00:11:56;101962.45;;;11.61;63.49
62928;BME280;51070;52.236;-0.892;2023-05-29T00:14:21;101961.36;;;11.56;63.80
62928;BME280;51070;52.236;-0.892;2023-05-29T00:16:47;101962.77;;;11.53;63.95
62928;BME280;51070;52.236;-0.892;2023-05-29T00:19:14;101963.77;;;11.49;63.83
62928;BME280;51070;52.236;-0.892;2023-05-29T00:21:42;101961.59;;;11.43;64.23
62928;BME280;51070;52.236;-0.892;2023-05-29T00:24:08;101964.84;;;11.39;64.40
62928;BME280;51070;52.236;-0.892;2023-05-29T00:26:34;101966.40;;;11.35;64.79
62928;BME280;51070;52.236;-0.892;2023-05-29T00:28:59;101961.48;;;11.34;64.92
62928;BME280;51070;52.236;-0.892;2023-05-29T00:31:24;101961.63;;;11.33;64.78
62928;BME280;51070;52.236;-0.892;2023-05-29T00:33:50;101963.73;;;11.30;65.04
62928;BME280;51070;52.236;-0.892;2023-05-29T00:36:16;101960.89;;;11.25;65.14
62928;BME280;51070;52.236;-0.892;2023-05-29T00:38:42;101960.09;;;11.23;65.49
62928;BME280;51070;52.236;-0.892;2023-05-29T00:41:08;101962.70;;;11.24;65.59
62928;BME280;51070;52.236;-0.892;2023-05-29T00:43:38;101962.44;;;11.21;65.80
62928;BME280;51070;52.236;-0.892;2023-05-29T00:46:03;101962.05;;;11.21;66.06
62928;BME280;51070;52.236;-0.892;2023-05-29T00:48:29;101960.67;;;11.21;66.22
62928;BME280;51070;52.236;-0.892;2023-05-29T00:50:55;101957.20;;;11.21;66.16
62928;BME280;51070;52.236;-0.892;2023-05-29T00:53:21;101963.97;;;11.21;66.13
62928;BME280;51070;52.236;-0.892;2023-05-29T00:55:48;101965.88;;;11.18;66.17
62928;BME280;51070;52.236;-0.892;2023-05-29T00:58:14;101963.88;;;11.12;66.25
62928;BME280;51070;52.236;-0.892;2023-05-29T01:00:40;101960.47;;;11.10;66.45
62928;BME280;51070;52.236;-0.892;2023-05-29T01:03:06;101958.35;;;11.06;66.13
62928;BME280;51070;52.236;-0.892;2023-05-29T01:05:34;101962.76;;;11.04;66.57
62928;BME280;51070;52.236;-0.892;2023-05-29T01:08:00;101960.26;;;11.02;66.56
62928;BME280;51070;52.236;-0.892;2023-05-29T01:10:27;101963.74;;;11.03;66.68
62928;BME280;51070;52.236;-0.892;2023-05-29T01:13:18;101959.56;;;10.99;66.75
62928;BME280;51070;52.236;-0.892;2023-05-29T01:16:14;101957.58;;;10.93;66.60
62928;BME280;51070;52.236;-0.892;2023-05-29T01:24:48;101961.19;;;10.79;67.12
62928;BME280;51070;52.236;-0.892;2023-05-29T01:27:17;101962.48;;;10.75;67.37
62928;BME280;51070;52.236;-0.892;2023-05-29T01:29:44;101963.73;;;10.72;67.44
62928;BME280;51070;52.236;-0.892;2023-05-29T01:32:11;101960.09;;;10.72;67.49
62928;BME280;51070;52.236;-0.892;2023-05-29T01:34:37;101959.23;;;10.72;67.37
62928;BME280;51070;52.236;-0.892;2023-05-29T01:37:03;101959.20;;;10.71;67.64
62928;BME280;51070;52.236;-0.892;2023-05-29T01:39:30;101957.85;;;10.68;67.74
62928;BME280;51070;52.236;-0.892;2023-05-29T01:41:57;101960.95;;;10.68;67.66
62928;BME280;51070;52.236;-0.892;2023-05-29T01:44:24;101959.25;;;10.69;67.94
62928;BME280;51070;52.236;-0.892;2023-05-29T01:46:51;101963.61;;;10.70;67.96
62928;BME280;51070;52.236;-0.892;2023-05-29T01:49:17;101963.95;;;10.69;67.59
62928;BME280;51070;52.236;-0.892;2023-05-29T01:51:43;101966.64;;;10.68;67.84
62928;BME280;51070;52.236;-0.892;2023-05-29T01:54:09;101965.84;;;10.66;67.79
62928;BME280;51070;52.236;-0.892;2023-05-29T01:56:35;101966.79;;;10.64;67.69
62928;BME280;51070;52.236;-0.892;2023-05-29T01:59:03;101963.38;;;10.62;67.73
62928;BME280;51070;52.236;-0.892;2023-05-29T02:01:29;101963.74;;;10.59;67.69
62928;BME280;51070;52.236;-0.892;2023-05-29T02:03:55;101966.39;;;10.56;67.95
62928;BME280;51070;52.236;-0.892;2023-05-29T02:06:20;101966.34;;;10.52;67.87
62928;BME280;51070;52.236;-0.892;2023-05-29T02:08:46;101964.97;;;10.46;67.95
62928;BME280;51070;52.236;-0.892;2023-05-29T02:11:12;101968.74;;;10.42;68.03
62928;BME280;51070;52.236;-0.892;2023-05-29T02:13:38;101965.67;;;10.39;68.06
62928;BME280;51070;52.236;-0.892;2023-05-29T02:16:03;101966.06;;;10.37;68.12
62928;BME280;51070;52.236;-0.892;2023-05-29T02:18:29;101962.79;;;10.34;68.33
62928;BME280;51070;52.236;-0.892;2023-05-29T02:20:54;101963.21;;;10.32;68.30
62928;BME280;51070;52.236;-0.892;2023-05-29T02:23:20;101962.30;;;10.31;68.39
62928;BME280;51070;52.236;-0.892;2023-05-29T02:25:46;101961.66;;;10.32;68.39
62928;BME280;51070;52.236;-0.892;2023-05-29T02:28:11;101959.20;;;10.35;68.35
62928;BME280;51070;52.236;-0.892;2023-05-29T02:30:38;101956.75;;;10.34;68.10
62928;BME280;51070;52.236;-0.892;2023-05-29T02:33:03;101956.14;;;10.32;68.06
62928;BME280;51070;52.236;-0.892;2023-05-29T02:35:29;101953.41;;;10.30;68.17
62928;BME280;51070;52.236;-0.892;2023-05-29T02:37:54;101952.81;;;10.25;68.20
62928;BME280;51070;52.236;-0.892;2023-05-29T02:40:20;101950.41;;;10.22;68.33
62928;BME280;51070;52.236;-0.892;2023-05-29T02:42:45;101952.20;;;10.20;68.44
62928;BME280;51070;52.236;-0.892;2023-05-29T02:45:11;101952.34;;;10.16;68.17
62928;BME280;51070;52.236;-0.892;2023-05-29T02:47:37;101955.14;;;10.11;68.32
62928;BME280;51070;52.236;-0.892;2023-05-29T02:50:03;101957.83;;;10.06;68.51
62928;BME280;51070;52.236;-0.892;2023-05-29T02:52:30;101956.72;;;10.05;68.42
62928;BME280;51070;52.236;-0.892;2023-05-29T02:54:56;101958.02;;;10.03;68.42
62928;BME280;51070;52.236;-0.892;2023-05-29T02:57:22;101959.16;;;9.99;68.28
62928;BME280;51070;52.236;-0.892;2023-05-29T02:59:48;101956.91;;;9.96;68.38
62928;BME280;51070;52.236;-0.892;2023-05-29T03:02:14;101957.02;;;9.95;68.42
62928;BME280;51070;52.236;-0.892;2023-05-29T03:04:39;101957.12;;;9.93;68.51
62928;BME280;51070;52.236;-0.892;2023-05-29T03:07:05;101950.83;;;9.92;68.61
62928;BME280;51070;52.236;-0.892;2023-05-29T03:09:32;101949.75;;;9.91;68.64
62928;BME280;51070;52.236;-0.892;2023-05-29T03:11:57;101952.48;;;9.91;68.74
62928;BME280;51070;52.236;-0.892;2023-05-29T03:14:23;101952.45;;;9.90;68.78
62928;BME280;51070;52.236;-0.892;2023-05-29T03:16:49;101948.21;;;9.88;68.69
62928;BME280;51070;52.236;-0.892;2023-05-29T03:19:14;101944.30;;;9.86;68.89
62928;BME280;51070;52.236;-0.892;2023-05-29T03:21:40;101946.74;;;9.84;68.71
62928;BME280;51070;52.236;-0.892;2023-05-29T03:24:06;101946.77;;;9.78;68.74
62928;BME280;51070;52.236;-0.892;2023-05-29T03:26:31;101943.34;;;9.72;68.91
62928;BME280;51070;52.236;-0.892;2023-05-29T03:28:57;101943.20;;;9.66;69.01
62928;BME280;51070;52.236;-0.892;2023-05-29T03:31:22;101945.41;;;9.62;69.26
62928;BME280;51070;52.236;-0.892;2023-05-29T03:33:48;101950.78;;;9.59;69.27
62928;BME280;51070;52.236;-0.892;2023-05-29T03:36:14;101955.73;;;9.56;69.34
62928;BME280;51070;52.236;-0.892;2023-05-29T03:38:42;101956.74;;;9.52;69.40
62928;BME280;51070;52.236;-0.892;2023-05-29T03:41:08;101958.31;;;9.49;69.41
62928;BME280;51070;52.236;-0.892;2023-05-29T03:43:33;101957.67;;;9.47;69.65
62928;BME280;51070;52.236;-0.892;2023-05-29T03:45:59;101958.27;;;9.45;69.71
62928;BME280;51070;52.236;-0.892;2023-05-29T03:48:25;101957.89;;;9.45;69.91
62928;BME280;51070;52.236;-0.892;2023-05-29T03:50:50;101960.31;;;9.45;70.05
62928;BME280;51070;52.236;-0.892;2023-05-29T03:53:16;101958.59;;;9.45;70.06
62928;BME280;51070;52.236;-0.892;2023-05-29T03:55:41;101957.58;;;9.46;70.09
62928;BME280;51070;52.236;-0.892;2023-05-29T03:58:07;101960.20;;;9.46;70.13
62928;BME280;51070;52.236;-0.892;2023-05-29T04:00:32;101959.17;;;9.46;70.03
62928;BME280;51070;52.236;-0.892;2023-05-29T04:02:58;101959.34;;;9.46;70.27
62928;BME280;51070;52.236;-0.892;2023-05-29T04:05:23;101961.39;;;9.49;70.05
62928;BME280;51070;52.236;-0.892;2023-05-29T04:07:48;101959.89;;;9.49;70.06
62928;BME280;51070;52.236;-0.892;2023-05-29T04:10:14;101960.23;;;9.47;69.94
62928;BME280;51070;52.236;-0.892;2023-05-29T04:12:40;101958.80;;;9.46;70.13
62928;BME280;51070;52.236;-0.892;2023-05-29T04:15:06;101964.08;;;9.45;70.03
62928;BME280;51070;52.236;-0.892;2023-05-29T04:17:32;101967.60;;;9.43;70.19
62928;BME280;51070;52.236;-0.892;2023-05-29T04:19:57;101970.64;;;9.45;70.39
62928;BME280;51070;52.236;-0.892;2023-05-29T04:22:23;101974.98;;;9.48;70.28
62928;BME280;51070;52.236;-0.892;2023-05-29T04:24:49;101969.95;;;9.54;70.20
62928;BME280;51070;52.236;-0.892;2023-05-29T04:27:14;101968.86;;;9.62;70.24
62928;BME280;51070;52.236;-0.892;2023-05-29T04:29:41;101966.67;;;9.69;70.03
62928;BME280;51070;52.236;-0.892;2023-05-29T04:32:10;101966.66;;;9.75;69.77
62928;BME280;51070;52.236;-0.892;2023-05-29T04:34:39;101969.89;;;9.81;69.81
62928;BME280;51070;52.236;-0.892;2023-05-29T04:37:05;101970.81;;;9.85;69.75
62928;BME280;51070;52.236;-0.892;2023-05-29T04:39:31;101973.59;;;9.91;69.66
62928;BME280;51070;52.236;-0.892;2023-05-29T04:41:57;101970.83;;;10.00;69.48
62928;BME280;51070;52.236;-0.892;2023-05-29T04:44:24;101975.34;;;10.07;69.13
62928;BME280;51070;52.236;-0.892;2023-05-29T04:46:52;101969.80;;;10.14;68.85
62928;BME280;51070;52.236;-0.892;2023-05-29T04:49:18;101974.50;;;10.20;68.65
62928;BME280;51070;52.236;-0.892;2023-05-29T04:51:44;101972.16;;;10.25;68.30
62928;BME280;51070;52.236;-0.892;2023-05-29T04:54:11;101974.08;;;10.29;68.17
62928;BME280;51070;52.236;-0.892;2023-05-29T04:56:37;101977.98;;;10.30;68.09
62928;BME280;51070;52.236;-0.892;2023-05-29T04:59:02;101981.88;;;10.36;68.42
62928;BME280;51070;52.236;-0.892;2023-05-29T05:01:28;101983.26;;;10.42;67.94
62928;BME280;51070;52.236;-0.892;2023-05-29T05:03:54;101987.02;;;10.44;67.61
62928;BME280;51070;52.236;-0.892;2023-05-29T05:06:23;101986.79;;;10.46;67.56
62928;BME280;51070;52.236;-0.892;2023-05-29T05:08:50;101985.91;;;10.49;67.38
62928;BME280;51070;52.236;-0.892;2023-05-29T05:11:17;101986.61;;;10.53;67.22
62928;BME280;51070;52.236;-0.892;2023-05-29T05:13:43;101985.88;;;10.59;67.09
62928;BME280;51070;52.236;-0.892;2023-05-29T05:16:08;101990.54;;;10.65;66.88
62928;BME280;51070;52.236;-0.892;2023-05-29T05:18:34;101992.88;;;10.70;66.83
62928;BME280;51070;52.236;-0.892;2023-05-29T05:20:59;101994.29;;;10.78;66.68
62928;BME280;51070;52.236;-0.892;2023-05-29T05:23:25;101988.92;;;10.84;66.43
62928;BME280;51070;52.236;-0.892;2023-05-29T05:25:50;101986.29;;;10.87;66.33
62928;BME280;51070;52.236;-0.892;2023-05-29T05:28:15;101982.63;;;10.90;66.06
62928;BME280;51070;52.236;-0.892;2023-05-29T05:30:41;101982.58;;;10.95;65.87
62928;BME280;51070;52.236;-0.892;2023-05-29T05:33:06;101984.27;;;11.05;65.65
62928;BME280;51070;52.236;-0.892;2023-05-29T05:35:33;101982.64;;;11.14;65.61
62928;BME280;51070;52.236;-0.892;2023-05-29T05:37:59;101978.45;;;11.24;65.26
62928;BME280;51070;52.236;-0.892;2023-05-29T05:40:25;101982.20;;;11.29;64.98
62928;BME280;51070;52.236;-0.892;2023-05-29T05:42:51;101990.48;;;11.36;64.98
62928;BME280;51070;52.236;-0.892;2023-05-29T05:45:16;101989.77;;;11.39;64.55
62928;BME280;51070;52.236;-0.892;2023-05-29T05:47:42;101994.27;;;11.43;64.54
62928;BME280;51070;52.236;-0.892;2023-05-29T05:50:08;101994.27;;;11.53;64.49
62928;BME280;51070;52.236;-0.892;2023-05-29T05:52:34;102000.25;;;11.66;64.34
62928;BME280;51070;52.236;-0.892;2023-05-29T05:54:59;102008.77;;;11.76;64.05
62928;BME280;51070;52.236;-0.892;2023-05-29T05:57:25;102009.49;;;11.81;63.69
62928;BME280;51070;52.236;-0.892;2023-05-29T05:59:51;102011.63;;;11.82;63.39
62928;BME280;51070;52.236;-0.892;2023-05-29T06:02:16;102010.79;;;11.83;63.37
62928;BME280;51070;52.236;-0.892;2023-05-29T06:04:42;102010.71;;;11.85;63.33
62928;BME280;51070;52.236;-0.892;2023-05-29T06:07:08;102008.08;;;11.88;63.12
62928;BME280;51070;52.236;-0.892;2023-05-29T06:09:34;102008.64;;;11.89;63.11
62928;BME280;51070;52.236;-0.892;2023-05-29T06:11:59;102011.90;;;11.91;62.85
62928;BME280;51070;52.236;-0.892;2023-05-29T06:14:25;102010.50;;;11.91;62.99
62928;BME280;51070;52.236;-0.892;2023-05-29T06:16:51;102014.77;;;11.94;63.05
62928;BME280;51070;52.236;-0.892;2023-05-29T06:19:16;102017.71;;;11.97;63.05
62928;BME280;51070;52.236;-0.892;2023-05-29T06:21:42;102017.52;;;12.01;62.86
62928;BME280;51070;52.236;-0.892;2023-05-29T06:24:08;102016.27;;;12.03;62.85
62928;BME280;51070;52.236;-0.892;2023-05-29T06:26:33;102010.80;;;12.05;62.70
62928;BME280;51070;52.236;-0.892;2023-05-29T06:28:59;102017.85;;;12.07;62.89
62928;BME280;51070;52.236;-0.892;2023-05-29T06:31:24;102022.40;;;12.12;62.65
62928;BME280;51070;52.236;-0.892;2023-05-29T06:33:50;102030.52;;;12.15;62.56
62928;BME280;51070;52.236;-0.892;2023-05-29T06:36:16;102031.06;;;12.20;62.48
62928;BME280;51070;52.236;-0.892;2023-05-29T06:38:46;102031.20;;;12.26;62.65
62928;BME280;51070;52.236;-0.892;2023-05-29T06:41:12;102031.63;;;12.32;62.50
62928;BME280;51070;52.236;-0.892;2023-05-29T06:43:37;102030.07;;;12.40;62.29
62928;BME280;51070;52.236;-0.892;2023-05-29T06:46:03;102029.85;;;12.46;61.98
62928;BME280;51070;52.236;-0.892;2023-05-29T06:48:32;102026.46;;;12.52;61.85
62928;BME280;51070;52.236;-0.892;2023-05-29T06:50:58;102026.19;;;12.61;61.50
62928;BME280;51070;52.236;-0.892;2023-05-29T06:53:24;102030.73;;;12.73;61.25
62928;BME280;51070;52.236;-0.892;2023-05-29T06:55:49;102028.26;;;12.84;60.84
62928;BME280;51070;52.236;-0.892;2023-05-29T06:58:15;102028.29;;;12.92;60.64
62928;BME280;51070;52.236;-0.892;2023-05-29T07:00:40;102035.29;;;12.98;60.32
62928;BME280;51070;52.236;-0.892;2023-05-29T07:03:06;102028.36;;;13.07;60.29
62928;BME280;51070;52.236;-0.892;2023-05-29T07:05:32;102030.66;;;13.15;60.10
62928;BME280;51070;52.236;-0.892;2023-05-29T07:07:57;102033.15;;;13.20;59.83
62928;BME280;51070;52.236;-0.892;2023-05-29T07:10:22;102034.50;;;13.24;59.63
62928;BME280;51070;52.236;-0.892;2023-05-29T07:12:48;102037.85;;;13.21;59.35
62928;BME280;51070;52.236;-0.892;2023-05-29T07:15:13;102037.83;;;13.16;59.42
62928;BME280;51070;52.236;-0.892;2023-05-29T07:17:39;102038.06;;;13.14;59.52
62928;BME280;51070;52.236;-0.892;2023-05-29T07:20:05;102042.27;;;13.11;59.41
62928;BME280;51070;52.236;-0.892;2023-05-29T07:22:34;102046.38;;;13.06;59.52
62928;BME280;51070;52.236;-0.892;2023-05-29T07:25:00;102047.17;;;13.00;59.22
62928;BME280;51070;52.236;-0.892;2023-05-29T07:27:26;102049.88;;;12.98;59.19
62928;BME280;51070;52.236;-0.892;2023-05-29T07:29:51;102047.73;;;13.01;59.26
62928;BME280;51070;52.236;-0.892;2023-05-29T07:32:16;102046.67;;;13.12;59.44
62928;BME280;51070;52.236;-0.892;2023-05-29T07:34:42;102048.39;;;13.27;59.28
62928;BME280;51070;52.236;-0.892;2023-05-29T07:37:07;102049.39;;;13.35;58.53
62928;BME280;51070;52.236;-0.892;2023-05-29T07:39:34;102049.88;;;13.42;58.37
62928;BME280;51070;52.236;-0.892;2023-05-29T07:42:00;102048.87;;;13.56;58.33
62928;BME280;51070;52.236;-0.892;2023-05-29T07:44:26;102050.82;;;13.69;57.94
62928;BME280;51070;52.236;-0.892;2023-05-29T07:46:52;102050.52;;;13.79;57.76
62928;BME280;51070;52.236;-0.892;2023-05-29T07:49:18;102046.30;;;13.86;57.55
62928;BME280;51070;52.236;-0.892;2023-05-29T07:51:44;102057.80;;;13.92;57.51
62928;BME280;51070;52.236;-0.892;2023-05-29T07:54:10;102058.30;;;14.00;57.09
62928;BME280;51070;52.236;-0.892;2023-05-29T07:56:36;102057.11;;;14.10;56.70
62928;BME280;51070;52.236;-0.892;2023-05-29T07:59:02;102058.46;;;14.18;56.53
62928;BME280;51070;52.236;-0.892;2023-05-29T08:01:29;102057.77;;;14.26;56.58
62928;BME280;51070;52.236;-0.892;2023-05-29T08:03:55;102052.50;;;14.29;56.09
62928;BME280;51070;52.236;-0.892;2023-05-29T08:06:20;102051.15;;;14.31;56.31
62928;BME280;51070;52.236;-0.892;2023-05-29T08:08:46;102054.11;;;14.40;56.24
62928;BME280;51070;52.236;-0.892;2023-05-29T08:11:12;102052.75;;;14.44;55.88
62928;BME280;51070;52.236;-0.892;2023-05-29T08:13:38;102054.29;;;14.48;55.64
62928;BME280;51070;52.236;-0.892;2023-05-29T08:16:03;102057.48;;;14.50;55.27
62928;BME280;51070;52.236;-0.892;2023-05-29T08:18:30;102058.05;;;14.51;55.01
62928;BME280;51070;52.236;-0.892;2023-05-29T08:20:56;102061.67;;;14.46;54.63
62928;BME280;51070;52.236;-0.892;2023-05-29T08:23:22;102060.30;;;14.42;54.64
62928;BME280;51070;52.236;-0.892;2023-05-29T08:25:48;102062.67;;;14.44;54.84
62928;BME280;51070;52.236;-0.892;2023-05-29T08:28:14;102061.96;;;14.44;54.73
62928;BME280;51070;52.236;-0.892;2023-05-29T08:30:40;102066.20;;;14.60;54.58
62928;BME280;51070;52.236;-0.892;2023-05-29T08:33:05;102065.50;;;15.18;53.83
62928;BME280;51070;52.236;-0.892;2023-05-29T08:35:31;102062.17;;;16.18;52.17
62928;BME280;51070;52.236;-0.892;2023-05-29T08:37:58;102058.66;;;16.46;50.86
62928;BME280;51070;52.236;-0.892;2023-05-29T08:40:23;102062.46;;;16.45;49.96
62928;BME280;51070;52.236;-0.892;2023-05-29T08:43:02;102071.84;;;16.31;49.26
62928;BME280;51070;52.236;-0.892;2023-05-29T08:45:33;102073.91;;;16.19;48.66
62928;BME280;51070;52.236;-0.892;2023-05-29T08:48:01;102070.02;;;16.00;48.62
62928;BME280;51070;52.236;-0.892;2023-05-29T08:50:26;102074.27;;;15.92;48.77
62928;BME280;51070;52.236;-0.892;2023-05-29T08:52:52;102077.63;;;15.99;48.05
62928;BME280;51070;52.236;-0.892;2023-05-29T08:55:18;102075.14;;;16.14;47.95
62928;BME280;51070;52.236;-0.892;2023-05-29T08:57:43;102073.66;;;16.28;46.86
62928;BME280;51070;52.236;-0.892;2023-05-29T09:00:11;102071.02;;;16.45;47.06
62928;BME280;51070;52.236;-0.892;2023-05-29T09:02:41;102069.25;;;16.61;46.61
62928;BME280;51070;52.236;-0.892;2023-05-29T09:05:09;102064.69;;;16.78;45.61
62928;BME280;51070;52.236;-0.892;2023-05-29T09:07:38;102070.14;;;16.73;45.03
62928;BME280;51070;52.236;-0.892;2023-05-29T09:10:08;102073.52;;;16.58;45.23
62928;BME280;51070;52.236;-0.892;2023-05-29T09:12:35;102072.17;;;16.43;45.97
62928;BME280;51070;52.236;-0.892;2023-05-29T09:15:01;102072.55;;;16.37;45.82
62928;BME280;51070;52.236;-0.892;2023-05-29T09:17:33;102072.04;;;16.32;46.07
62928;BME280;51070;52.236;-0.892;2023-05-29T09:19:59;102073.64;;;16.21;46.47
62928;BME280;51070;52.236;-0.892;2023-05-29T09:22:26;102076.02;;;16.14;46.79
62928;BME280;51070;52.236;-0.892;2023-05-29T09:24:51;102078.31;;;16.10;47.16
62928;BME280;51070;52.236;-0.892;2023-05-29T09:27:18;102078.61;;;16.19;47.19
62928;BME280;51070;52.236;-0.892;2023-05-29T09:29:45;102079.45;;;16.23;46.94
62928;BME280;51070;52.236;-0.892;2023-05-29T09:32:18;102077.46;;;16.27;46.63
62928;BME280;51070;52.236;-0.892;2023-05-29T09:34:44;102072.23;;;16.33;46.75
62928;BME280;51070;52.236;-0.892;2023-05-29T09:37:11;102078.27;;;16.42;46.39
62928;BME280;51070;52.236;-0.892;2023-05-29T09:39:47;102073.50;;;16.52;46.45
62928;BME280;51070;52.236;-0.892;2023-05-29T09:42:15;102074.95;;;16.77;45.63
62928;BME280;51070;52.236;-0.892;2023-05-29T09:44:42;102069.30;;;17.32;45.18
62928;BME280;51070;52.236;-0.892;2023-05-29T09:47:08;102068.92;;;17.52;45.08
62928;BME280;51070;52.236;-0.892;2023-05-29T09:49:34;102069.11;;;17.65;44.49
62928;BME280;51070;52.236;-0.892;2023-05-29T09:52:04;102071.27;;;17.82;44.05
62928;BME280;51070;52.236;-0.892;2023-05-29T09:54:34;102066.89;;;17.75;44.05
62928;BME280;51070;52.236;-0.892;2023-05-29T09:57:03;102068.52;;;17.70;43.95
62928;BME280;51070;52.236;-0.892;2023-05-29T09:59:29;102071.82;;;17.68;43.73
62928;BME280;51070;52.236;-0.892;2023-05-29T10:02:03;102070.55;;;17.74;43.77
62928;BME280;51070;52.236;-0.892;2023-05-29T10:04:33;102069.41;;;17.78;43.41
62928;BME280;51070;52.236;-0.892;2023-05-29T10:07:07;102072.74;;;17.70;43.71
62928;BME280;51070;52.236;-0.892;2023-05-29T10:09:34;102073.91;;;17.61;43.82
62928;BME280;51070;52.236;-0.892;2023-05-29T10:12:05;102072.20;;;17.50;44.39
62928;BME280;51070;52.236;-0.892;2023-05-29T10:14:33;102073.34;;;17.40;44.25
62928;BME280;51070;52.236;-0.892;2023-05-29T10:17:02;102066.94;;;17.36;44.52
62928;BME280;51070;52.236;-0.892;2023-05-29T10:19:32;102065.80;;;17.32;44.33
62928;BME280;51070;52.236;-0.892;2023-05-29T10:22:02;102064.59;;;17.19;44.63
62928;BME280;51070;52.236;-0.892;2023-05-29T10:24:31;102059.85;;;17.12;44.50
62928;BME280;51070;52.236;-0.892;2023-05-29T10:26:57;102064.05;;;17.18;44.53
62928;BME280;51070;52.236;-0.892;2023-05-29T10:37:39;102064.75;;;19.19;41.00
62928;BME280;51070;52.236;-0.892;2023-05-29T10:40:10;102071.48;;;19.63;38.95
62928;BME280;51070;52.236;-0.892;2023-05-29T10:45:06;102072.23;;;20.47;38.10
62928;BME280;51070;52.236;-0.892;2023-05-29T10:47:32;102068.73;;;20.92;36.61
62928;BME280;51070;52.236;-0.892;2023-05-29T10:50:02;102071.77;;;21.48;35.47
62928;BME280;51070;52.236;-0.892;2023-05-29T10:52:32;102068.80;;;21.49;35.32
62928;BME280;51070;52.236;-0.892;2023-05-29T10:54:57;102066.21;;;21.35;35.67
62928;BME280;51070;52.236;-0.892;2023-05-29T10:57:24;102060.80;;;21.39;35.84
62928;BME280;51070;52.236;-0.892;2023-05-29T11:00:12;102055.10;;;21.51;35.52
62928;BME280;51070;52.236;-0.892;2023-05-29T11:02:51;102053.81;;;21.64;35.99
62928;BME280;51070;52.236;-0.892;2023-05-29T11:05:23;102060.02;;;21.74;35.32
62928;BME280;51070;52.236;-0.892;2023-05-29T11:07:53;102053.67;;;21.50;35.18
62928;BME280;51070;52.236;-0.892;2023-05-29T11:13:32;102048.98;;;21.32;35.93
62928;BME280;51070;52.236;-0.892;2023-05-29T11:16:13;102047.47;;;21.42;36.28
62928;BME280;51070;52.236;-0.892;2023-05-29T11:18:48;102043.99;;;21.71;36.23
62928;BME280;51070;52.236;-0.892;2023-05-29T11:24:02;102041.02;;;22.22;34.15
62928;BME280;51070;52.236;-0.892;2023-05-29T11:26:28;102042.59;;;22.24;33.96
62928;BME280;51070;52.236;-0.892;2023-05-29T11:28:59;102038.67;;;22.14;33.61
62928;BME280;51070;52.236;-0.892;2023-05-29T11:31:27;102038.29;;;22.06;33.92
62928;BME280;51070;52.236;-0.892;2023-05-29T11:33:59;102031.58;;;22.01;33.91
62928;BME280;51070;52.236;-0.892;2023-05-29T11:36:25;102035.75;;;21.96;34.00
62928;BME280;51070;52.236;-0.892;2023-05-29T11:38:52;102040.20;;;21.79;34.54
62928;BME280;51070;52.236;-0.892;2023-05-29T11:41:17;102041.42;;;21.80;35.24
62928;BME280;51070;52.236;-0.892;2023-05-29T11:43:43;102044.33;;;21.93;34.45
62928;BME280;51070;52.236;-0.892;2023-05-29T11:46:16;102046.59;;;21.89;34.58
62928;BME280;51070;52.236;-0.892;2023-05-29T11:48:47;102051.08;;;21.76;33.96
62928;BME280;51070;52.236;-0.892;2023-05-29T11:51:12;102044.27;;;21.57;34.50
62928;BME280;51070;52.236;-0.892;2023-05-29T11:53:42;102048.21;;;21.47;34.80
62928;BME280;51070;52.236;-0.892;2023-05-29T11:56:09;102041.73;;;21.49;35.00
62928;BME280;51070;52.236;-0.892;2023-05-29T11:58:39;102037.65;;;21.45;34.74
62928;BME280;51070;52.236;-0.892;2023-05-29T12:01:06;102039.09;;;21.30;34.69
62928;BME280;51070;52.236;-0.892;2023-05-29T12:03:42;102040.44;;;21.22;34.87
62928;BME280;51070;52.236;-0.892;2023-05-29T12:06:11;102032.52;;;21.21;34.99
62928;BME280;51070;52.236;-0.892;2023-05-29T12:08:37;102030.84;;;21.14;35.22
62928;BME280;51070;52.236;-0.892;2023-05-29T12:11:03;102027.84;;;21.13;35.24
62928;BME280;51070;52.236;-0.892;2023-05-29T12:13:29;102023.70;;;21.18;35.43
62928;BME280;51070;52.236;-0.892;2023-05-29T12:15:57;102021.83;;;21.26;35.44
62928;BME280;51070;52.236;-0.892;2023-05-29T12:18:24;102029.13;;;21.36;35.68
62928;BME280;51070;52.236;-0.892;2023-05-29T12:20:50;102031.96;;;21.38;34.93
62928;BME280;51070;52.236;-0.892;2023-05-29T12:23:18;102030.67;;;21.31;35.28
62928;BME280;51070;52.236;-0.892;2023-05-29T12:25:46;102031.66;;;21.23;34.91
62928;BME280;51070;52.236;-0.892;2023-05-29T12:28:16;102032.02;;;21.10;35.81
62928;BME280;51070;52.236;-0.892;2023-05-29T12:30:45;102036.25;;;21.10;35.57
62928;BME280;51070;52.236;-0.892;2023-05-29T12:33:32;102030.17;;;21.17;35.54
62928;BME280;51070;52.236;-0.892;2023-05-29T12:36:05;102029.70;;;21.21;35.65
62928;BME280;51070;52.236;-0.892;2023-05-29T12:38:31;102029.01;;;21.22;35.77
62928;BME280;51070;52.236;-0.892;2023-05-29T12:40:57;102031.96;;;21.19;35.63
62928;BME280;51070;52.236;-0.892;2023-05-29T12:43:23;102036.08;;;21.11;35.56
62928;BME280;51070;52.236;-0.892;2023-05-29T12:45:54;102033.44;;;21.11;35.06
62928;BME280;51070;52.236;-0.892;2023-05-29T12:48:27;102037.02;;;21.16;34.82
62928;BME280;51070;52.236;-0.892;2023-05-29T12:50:52;102042.61;;;21.12;34.90
62928;BME280;51070;52.236;-0.892;2023-05-29T12:53:18;102038.59;;;21.00;35.30
62928;BME280;51070;52.236;-0.892;2023-05-29T12:55:44;102041.88;;;20.94;34.81
62928;BME280;51070;52.236;-0.892;2023-05-29T12:58:12;102036.33;;;20.83;35.28
62928;BME280;51070;52.236;-0.892;2023-05-29T13:00:39;102033.45;;;20.79;35.83
62928;BME280;51070;52.236;-0.892;2023-05-29T13:03:06;102027.16;;;20.81;35.91